Fort Davis, TX

7:18 PM CDT on July 22, 2017 (GMT -0500)
Limpia Crossing | | Change Station
Active Advisory: Areal Flood Advisory Active Notice: Areal Flood Advisory

Elev 5217 ft 30.61 °N, 103.99 °W | Updated 1 day ago

Overcast
Overcast
72.3 °F
Feels Like 75 °F
N
7.0
Wind Variable Wind from SE
Gusts 7.0 mph

Today
High -- | Low -- °F
--% Chance of Precip.
Yesterday
High -- | Low -- °F
Precip. -- in
Pressure 29.90 in
Visibility 10.0 miles
Clouds Clear
Heat Index 75 °F
Dew Point 62 °F
Humidity 69%
Rainfall 0.01 in
Snow Depth Not available.
7:07 AM 8:56 PM
Waning Crescent, 0% visible
METAR KMRF 222356Z AUTO 19006KT 10SM CLR 29/13 A3008 RMK AO2 LTG DSNT E-S SLP123 T02940128 10306 20278 55011
Pressure 29.90 in
Visibility 10.0 miles
Clouds Clear
Heat Index 75 °F
Dew Point 62 °F
Humidity 69%
Rainfall 0.01 in
Snow Depth Not available.
7:07 AM 8:56 PM
Waning Crescent, 0% visible
METAR KMRF 222356Z AUTO 19006KT 10SM CLR 29/13 A3008 RMK AO2 LTG DSNT E-S SLP123 T02940128 10306 20278 55011

Get Your Daily Forecast Email!

Thanks for signing up!

Be on the lookout for a verification email in your inbox.

You'll start receiving severe weather alerts in your inbox..

×

10-Day Weather Forecast

Almanac

Astronomy

Jul. 22, 2017 Rise Set
Actual Time
Civil Twilight
Nautical Twilight
Astronomical Twilight
Moon
Length of Visible Light
Length of Day
Tomorrow will be .
, % of the Moon is Illuminated

Today's Extremes

State Highs State Lows

Community

WunderPhotos

Category 6

Welcome to Category 6. This is the collective home for Weather Underground's featured writeups by Dr. Jeff Masters (right), Bob Henson (left), Chris Burt, and other regular contributors.

Nearby

Air Quality

  Air Quality AQ Index Pollutant
Not available.

Snow Depth

Station Depth Elevation

Earthquake Activity

City Distance Mag. Time & Date
Minimum magnitude displayed is 2.5.

Coastal Water Temperatures

Place Temperature

Stations

Nearby Weather Stations

Station Location Temp. Windchill Dew Point Humidity Wind Precip. Elev Updated Type
                   

Watches & Warnings

Areal Flood Advisory
Issued: 5:55 PM CDT Jul. 22, 2017 – National Weather Service

The National Weather Service in Midland has issued a

* urban and small stream flood advisory for...
southwestern Pecos County in southwestern Texas...
northern Brewster County in southwestern Texas...

* until 800 PM CDT

* at 554 PM CDT, Doppler radar indicated heavy rain due to
thunderstorms. This will cause urban and small stream flooding in
the advisory area.

* Some locations that will experience flooding include...
alpine, Marathon, Hovey, Altuda, Elephant Mountain wildlife
management area and Longfellow.

Precautionary/preparedness actions...

Turn around, don't drown when encountering flooded roads. Most flood
deaths occur in vehicles.


Lat... Lon 3071 10265 2986 10263 2995 10378 3040 10379
      3066 10343 3076 10355


49